首页
METAR-TAF:

METAR-TAF

机场 :

卡尔加里, 艾伯塔, 加拿大

卡尔加里国际机场

纬度: 51-07N, 经度: 114-01W, 海拔: 1077米

当前天气观测

该预报发布于48分钟前的23:00 UTC
风速9节,风向西转西南
温度 6°C
湿度 45%
气压 997 hPa
能見度: 24.1公里
少量云层高于12000英尺
散云层高于20000英尺

METAR: CYYC 182300Z 25009KT 15SM FEW120 SCT200 06/M05 A2943 RMK AC2CI2 SLP995 DENSITY ALT 4000FT

时间: 16:48 (23:48 UTC)

预报

该预报发布于3小时和10分钟前的20:38 UTC
预报有效从18日的 21点(UTC)到 19日的 18点(UTC)
风速10节,风向西转西南,有时为20节阵风
能見度: 10公里
少量云层高于12000英尺
散云层高于24000英尺
从 18日的 2300点(UTC)
风速15节,风向西,有时为25节阵风
能見度: 10公里
少量云层高于8000英尺
少量云层高于22000英尺
从 19日的 0500点(UTC)
风速12节,风向西
能見度: 10公里
少量云层高于16000英尺
散云层高于22000英尺
从 19日的 0900点(UTC)
风速12节,风向西转西南
能見度: 10公里
多云层高于22000英尺

TAF: CYYC 182038Z 1821/1918 25010G20KT P6SM FEW120 SCT240 FM182300 26015G25KT P6SM FEW080 FEW220 FM190500 26012KT WS005/26040KT P6SM FEW160 SCT220 FM190900 24012KT P6SM BKN220 RMK NXT FCST BY 190000Z

超过4000个机场的气象观测和天气预报(METAR&TAF报告)。

可查询的气象台以黄色和红色小点在地图上表示。

将鼠标移到小点上方,可查看气象台名称。

然后点击查看天气观测和预报。

如需切换地图:点击带黑十字的绿色按钮放大地图;点击带横线的绿色按钮缩小地图;或者点击绿色箭头查看邻近地区的地图。


METAR-TAF: